sensor_id;sensor_type;location;lat;lon;timestamp;P1;durP1;ratioP1;P2;durP2;ratioP2
2480;SDS011;57396;48.742;9.128;2022-10-31T00:02:15;9.20;;;4.10;;
2480;SDS011;57396;48.742;9.128;2022-10-31T00:04:41;8.27;;;4.20;;
2480;SDS011;57396;48.742;9.128;2022-10-31T00:07:06;9.67;;;3.90;;
2480;SDS011;57396;48.742;9.128;2022-10-31T00:09:32;10.70;;;3.93;;
2480;SDS011;57396;48.742;9.128;2022-10-31T00:11:57;6.10;;;3.90;;
2480;SDS011;57396;48.742;9.128;2022-10-31T00:14:22;13.53;;;3.83;;
2480;SDS011;57396;48.742;9.128;2022-10-31T00:16:48;8.47;;;4.00;;
2480;SDS011;57396;48.742;9.128;2022-10-31T00:19:13;9.80;;;4.80;;
2480;SDS011;57396;48.742;9.128;2022-10-31T00:21:39;8.43;;;3.67;;
2480;SDS011;57396;48.742;9.128;2022-10-31T00:24:04;6.77;;;3.93;;
2480;SDS011;57396;48.742;9.128;2022-10-31T00:26:30;9.53;;;4.73;;
2480;SDS011;57396;48.742;9.128;2022-10-31T00:28:57;11.10;;;4.23;;
2480;SDS011;57396;48.742;9.128;2022-10-31T00:31:22;13.40;;;4.50;;
2480;SDS011;57396;48.742;9.128;2022-10-31T00:33:48;23.37;;;4.70;;
2480;SDS011;57396;48.742;9.128;2022-10-31T00:36:14;8.77;;;4.20;;
2480;SDS011;57396;48.742;9.128;2022-10-31T00:38:41;7.90;;;4.07;;
2480;SDS011;57396;48.742;9.128;2022-10-31T00:41:07;11.23;;;3.87;;
2480;SDS011;57396;48.742;9.128;2022-10-31T00:43:33;8.23;;;4.10;;
2480;SDS011;57396;48.742;9.128;2022-10-31T00:45:58;5.70;;;4.03;;
2480;SDS011;57396;48.742;9.128;2022-10-31T00:48:24;6.17;;;3.67;;
2480;SDS011;57396;48.742;9.128;2022-10-31T00:50:49;5.70;;;3.40;;
2480;SDS011;57396;48.742;9.128;2022-10-31T00:53:15;8.50;;;3.77;;
2480;SDS011;57396;48.742;9.128;2022-10-31T00:55:40;5.03;;;3.60;;
2480;SDS011;57396;48.742;9.128;2022-10-31T00:58:06;8.63;;;3.60;;
2480;SDS011;57396;48.742;9.128;2022-10-31T01:00:31;9.37;;;3.17;;
2480;SDS011;57396;48.742;9.128;2022-10-31T01:02:57;7.17;;;3.50;;
2480;SDS011;57396;48.742;9.128;2022-10-31T01:05:22;10.00;;;3.93;;
2480;SDS011;57396;48.742;9.128;2022-10-31T01:07:47;8.50;;;3.43;;
2480;SDS011;57396;48.742;9.128;2022-10-31T01:10:13;10.97;;;4.00;;
2480;SDS011;57396;48.742;9.128;2022-10-31T01:12:39;6.07;;;3.67;;
2480;SDS011;57396;48.742;9.128;2022-10-31T01:15:06;8.93;;;3.70;;
2480;SDS011;57396;48.742;9.128;2022-10-31T01:17:32;9.83;;;4.07;;
2480;SDS011;57396;48.742;9.128;2022-10-31T01:19:58;5.20;;;3.67;;
2480;SDS011;57396;48.742;9.128;2022-10-31T01:22:23;6.80;;;3.50;;
2480;SDS011;57396;48.742;9.128;2022-10-31T01:24:48;13.90;;;3.80;;
2480;SDS011;57396;48.742;9.128;2022-10-31T01:27:14;6.20;;;3.80;;
2480;SDS011;57396;48.742;9.128;2022-10-31T01:29:39;6.70;;;3.70;;
2480;SDS011;57396;48.742;9.128;2022-10-31T01:32:05;10.13;;;3.70;;
2480;SDS011;57396;48.742;9.128;2022-10-31T01:34:30;11.93;;;3.83;;
2480;SDS011;57396;48.742;9.128;2022-10-31T01:36:56;7.47;;;3.80;;
2480;SDS011;57396;48.742;9.128;2022-10-31T01:39:21;8.20;;;4.27;;
2480;SDS011;57396;48.742;9.128;2022-10-31T01:41:48;11.60;;;4.30;;
2480;SDS011;57396;48.742;9.128;2022-10-31T01:46:40;8.67;;;3.87;;
2480;SDS011;57396;48.742;9.128;2022-10-31T01:49:14;6.50;;;3.97;;
2480;SDS011;57396;48.742;9.128;2022-10-31T01:51:44;6.87;;;3.47;;
2480;SDS011;57396;48.742;9.128;2022-10-31T01:54:16;10.80;;;3.77;;
2480;SDS011;57396;48.742;9.128;2022-10-31T01:56:45;8.57;;;4.00;;
2480;SDS011;57396;48.742;9.128;2022-10-31T01:59:14;5.13;;;3.43;;
2480;SDS011;57396;48.742;9.128;2022-10-31T02:01:42;8.13;;;3.60;;
2480;SDS011;57396;48.742;9.128;2022-10-31T02:04:08;7.80;;;3.60;;
2480;SDS011;57396;48.742;9.128;2022-10-31T02:06:44;13.07;;;4.13;;
2480;SDS011;57396;48.742;9.128;2022-10-31T02:09:12;9.90;;;4.00;;
2480;SDS011;57396;48.742;9.128;2022-10-31T02:11:38;4.63;;;3.50;;
2480;SDS011;57396;48.742;9.128;2022-10-31T02:14:03;9.87;;;4.27;;
2480;SDS011;57396;48.742;9.128;2022-10-31T02:16:29;5.07;;;3.80;;
2480;SDS011;57396;48.742;9.128;2022-10-31T02:18:54;8.37;;;4.13;;
2480;SDS011;57396;48.742;9.128;2022-10-31T02:21:23;7.50;;;3.63;;
2480;SDS011;57396;48.742;9.128;2022-10-31T02:32:20;7.97;;;3.80;;
2480;SDS011;57396;48.742;9.128;2022-10-31T02:34:58;6.90;;;3.40;;
2480;SDS011;57396;48.742;9.128;2022-10-31T02:37:34;10.63;;;3.53;;
2480;SDS011;57396;48.742;9.128;2022-10-31T02:40:28;6.10;;;3.87;;
2480;SDS011;57396;48.742;9.128;2022-10-31T02:43:05;4.77;;;3.67;;
2480;SDS011;57396;48.742;9.128;2022-10-31T02:45:41;5.60;;;3.63;;
2480;SDS011;57396;48.742;9.128;2022-10-31T02:48:14;4.67;;;3.30;;
2480;SDS011;57396;48.742;9.128;2022-10-31T02:50:52;5.47;;;3.70;;
2480;SDS011;57396;48.742;9.128;2022-10-31T02:53:22;14.37;;;3.70;;
2480;SDS011;57396;48.742;9.128;2022-10-31T02:58:36;6.30;;;3.40;;
2480;SDS011;57396;48.742;9.128;2022-10-31T03:07:11;7.93;;;3.67;;
2480;SDS011;57396;48.742;9.128;2022-10-31T03:12:36;8.00;;;3.57;;
2480;SDS011;57396;48.742;9.128;2022-10-31T03:15:48;4.90;;;3.43;;
2480;SDS011;57396;48.742;9.128;2022-10-31T03:20:28;6.60;;;3.87;;
2480;SDS011;57396;48.742;9.128;2022-10-31T03:22:57;7.77;;;3.80;;
2480;SDS011;57396;48.742;9.128;2022-10-31T03:25:24;7.43;;;3.60;;
2480;SDS011;57396;48.742;9.128;2022-10-31T03:27:51;8.63;;;3.63;;
2480;SDS011;57396;48.742;9.128;2022-10-31T03:30:16;8.00;;;3.90;;
2480;SDS011;57396;48.742;9.128;2022-10-31T03:32:46;5.57;;;3.70;;
2480;SDS011;57396;48.742;9.128;2022-10-31T03:35:14;10.20;;;4.20;;
2480;SDS011;57396;48.742;9.128;2022-10-31T03:37:41;7.97;;;3.83;;
2480;SDS011;57396;48.742;9.128;2022-10-31T03:40:07;8.13;;;3.10;;
2480;SDS011;57396;48.742;9.128;2022-10-31T03:42:34;11.10;;;4.23;;
2480;SDS011;57396;48.742;9.128;2022-10-31T03:45:07;7.60;;;3.90;;
2480;SDS011;57396;48.742;9.128;2022-10-31T03:47:41;7.97;;;3.67;;
2480;SDS011;57396;48.742;9.128;2022-10-31T03:50:08;12.87;;;4.00;;
2480;SDS011;57396;48.742;9.128;2022-10-31T03:55:30;7.80;;;4.17;;
2480;SDS011;57396;48.742;9.128;2022-10-31T03:57:58;8.37;;;4.50;;
2480;SDS011;57396;48.742;9.128;2022-10-31T04:00:25;11.10;;;3.73;;
2480;SDS011;57396;48.742;9.128;2022-10-31T04:03:10;6.33;;;3.67;;
2480;SDS011;57396;48.742;9.128;2022-10-31T04:05:38;8.20;;;3.60;;
2480;SDS011;57396;48.742;9.128;2022-10-31T04:08:07;6.13;;;3.70;;
2480;SDS011;57396;48.742;9.128;2022-10-31T04:10:35;6.23;;;3.37;;
2480;SDS011;57396;48.742;9.128;2022-10-31T04:13:06;12.63;;;3.63;;
2480;SDS011;57396;48.742;9.128;2022-10-31T04:15:33;9.83;;;3.77;;
2480;SDS011;57396;48.742;9.128;2022-10-31T04:18:00;9.33;;;3.53;;
2480;SDS011;57396;48.742;9.128;2022-10-31T04:20:30;8.50;;;3.83;;
2480;SDS011;57396;48.742;9.128;2022-10-31T04:23:12;6.43;;;3.70;;
2480;SDS011;57396;48.742;9.128;2022-10-31T04:25:41;20.67;;;4.43;;
2480;SDS011;57396;48.742;9.128;2022-10-31T04:28:06;10.37;;;4.00;;
2480;SDS011;57396;48.742;9.128;2022-10-31T04:30:32;6.63;;;3.53;;
2480;SDS011;57396;48.742;9.128;2022-10-31T04:32:57;5.30;;;3.60;;
2480;SDS011;57396;48.742;9.128;2022-10-31T04:35:23;12.10;;;4.20;;
2480;SDS011;57396;48.742;9.128;2022-10-31T04:37:48;9.93;;;4.37;;
2480;SDS011;57396;48.742;9.128;2022-10-31T04:40:14;15.23;;;4.20;;
2480;SDS011;57396;48.742;9.128;2022-10-31T04:42:39;8.10;;;3.90;;
2480;SDS011;57396;48.742;9.128;2022-10-31T04:45:05;8.23;;;3.80;;
2480;SDS011;57396;48.742;9.128;2022-10-31T04:47:31;7.70;;;3.83;;
2480;SDS011;57396;48.742;9.128;2022-10-31T04:49:58;7.33;;;4.00;;
2480;SDS011;57396;48.742;9.128;2022-10-31T04:52:23;5.10;;;3.53;;
2480;SDS011;57396;48.742;9.128;2022-10-31T04:54:49;15.40;;;3.90;;
2480;SDS011;57396;48.742;9.128;2022-10-31T04:57:14;7.53;;;3.80;;
2480;SDS011;57396;48.742;9.128;2022-10-31T04:59:39;15.53;;;4.37;;
2480;SDS011;57396;48.742;9.128;2022-10-31T05:02:05;8.23;;;3.87;;
2480;SDS011;57396;48.742;9.128;2022-10-31T05:04:30;13.33;;;4.30;;
2480;SDS011;57396;48.742;9.128;2022-10-31T05:06:56;6.60;;;4.00;;
2480;SDS011;57396;48.742;9.128;2022-10-31T05:09:21;12.77;;;4.20;;
2480;SDS011;57396;48.742;9.128;2022-10-31T05:11:47;7.97;;;4.60;;
2480;SDS011;57396;48.742;9.128;2022-10-31T05:14:12;9.83;;;3.67;;
2480;SDS011;57396;48.742;9.128;2022-10-31T05:16:37;5.80;;;4.30;;
2480;SDS011;57396;48.742;9.128;2022-10-31T05:19:03;8.73;;;4.23;;
2480;SDS011;57396;48.742;9.128;2022-10-31T05:21:28;8.80;;;3.97;;
2480;SDS011;57396;48.742;9.128;2022-10-31T05:23:54;6.13;;;4.10;;
2480;SDS011;57396;48.742;9.128;2022-10-31T05:26:19;12.10;;;4.70;;
2480;SDS011;57396;48.742;9.128;2022-10-31T05:28:45;6.87;;;4.23;;
2480;SDS011;57396;48.742;9.128;2022-10-31T05:31:10;9.10;;;4.43;;
2480;SDS011;57396;48.742;9.128;2022-10-31T05:33:35;9.53;;;4.20;;
2480;SDS011;57396;48.742;9.128;2022-10-31T05:36:01;13.20;;;4.20;;
2480;SDS011;57396;48.742;9.128;2022-10-31T05:38:26;14.33;;;4.93;;
2480;SDS011;57396;48.742;9.128;2022-10-31T05:40:54;9.17;;;4.47;;
2480;SDS011;57396;48.742;9.128;2022-10-31T05:43:22;10.70;;;3.90;;
2480;SDS011;57396;48.742;9.128;2022-10-31T05:45:51;8.63;;;5.00;;
2480;SDS011;57396;48.742;9.128;2022-10-31T05:48:17;10.03;;;4.73;;
2480;SDS011;57396;48.742;9.128;2022-10-31T05:50:42;7.40;;;4.00;;
2480;SDS011;57396;48.742;9.128;2022-10-31T05:53:08;9.20;;;5.00;;
2480;SDS011;57396;48.742;9.128;2022-10-31T05:55:33;10.03;;;4.43;;
2480;SDS011;57396;48.742;9.128;2022-10-31T05:57:59;16.37;;;4.27;;
2480;SDS011;57396;48.742;9.128;2022-10-31T06:00:25;9.70;;;5.27;;
2480;SDS011;57396;48.742;9.128;2022-10-31T06:02:57;15.50;;;4.30;;
2480;SDS011;57396;48.742;9.128;2022-10-31T06:05:23;8.73;;;4.00;;
2480;SDS011;57396;48.742;9.128;2022-10-31T06:07:49;6.73;;;3.87;;
2480;SDS011;57396;48.742;9.128;2022-10-31T06:10:14;10.37;;;4.80;;
2480;SDS011;57396;48.742;9.128;2022-10-31T06:12:40;11.73;;;4.60;;
2480;SDS011;57396;48.742;9.128;2022-10-31T06:15:06;10.87;;;4.53;;
2480;SDS011;57396;48.742;9.128;2022-10-31T06:17:33;6.83;;;4.10;;
2480;SDS011;57396;48.742;9.128;2022-10-31T06:19:59;8.40;;;5.00;;
2480;SDS011;57396;48.742;9.128;2022-10-31T06:22:24;10.47;;;5.20;;
2480;SDS011;57396;48.742;9.128;2022-10-31T06:24:50;11.60;;;5.17;;
2480;SDS011;57396;48.742;9.128;2022-10-31T06:27:15;10.13;;;4.90;;
2480;SDS011;57396;48.742;9.128;2022-10-31T06:29:41;11.03;;;4.77;;
2480;SDS011;57396;48.742;9.128;2022-10-31T06:32:09;12.50;;;4.07;;
2480;SDS011;57396;48.742;9.128;2022-10-31T06:34:35;12.80;;;4.97;;
2480;SDS011;57396;48.742;9.128;2022-10-31T06:37:00;9.03;;;4.90;;
2480;SDS011;57396;48.742;9.128;2022-10-31T06:39:26;9.43;;;5.10;;
2480;SDS011;57396;48.742;9.128;2022-10-31T06:41:51;8.90;;;5.00;;
2480;SDS011;57396;48.742;9.128;2022-10-31T06:44:16;8.23;;;4.80;;
2480;SDS011;57396;48.742;9.128;2022-10-31T06:46:42;10.23;;;4.87;;
2480;SDS011;57396;48.742;9.128;2022-10-31T06:49:07;19.13;;;10.27;;
2480;SDS011;57396;48.742;9.128;2022-10-31T06:51:33;20.63;;;10.37;;
2480;SDS011;57396;48.742;9.128;2022-10-31T06:53:59;15.23;;;8.17;;
2480;SDS011;57396;48.742;9.128;2022-10-31T06:56:24;14.03;;;5.60;;
2480;SDS011;57396;48.742;9.128;2022-10-31T06:58:49;8.63;;;5.17;;
2480;SDS011;57396;48.742;9.128;2022-10-31T07:01:15;9.47;;;4.50;;
2480;SDS011;57396;48.742;9.128;2022-10-31T07:03:40;7.83;;;5.00;;
2480;SDS011;57396;48.742;9.128;2022-10-31T07:06:06;10.90;;;6.50;;
2480;SDS011;57396;48.742;9.128;2022-10-31T07:08:31;13.10;;;6.40;;
2480;SDS011;57396;48.742;9.128;2022-10-31T07:10:57;11.17;;;5.63;;
2480;SDS011;57396;48.742;9.128;2022-10-31T07:13:22;11.43;;;6.37;;
2480;SDS011;57396;48.742;9.128;2022-10-31T07:16:00;11.47;;;5.80;;
2480;SDS011;57396;48.742;9.128;2022-10-31T07:18:27;12.20;;;5.17;;
2480;SDS011;57396;48.742;9.128;2022-10-31T07:20:53;9.30;;;5.50;;
2480;SDS011;57396;48.742;9.128;2022-10-31T07:23:18;12.30;;;6.00;;
2480;SDS011;57396;48.742;9.128;2022-10-31T07:25:44;9.43;;;6.00;;
2480;SDS011;57396;48.742;9.128;2022-10-31T07:28:09;8.20;;;5.60;;
2480;SDS011;57396;48.742;9.128;2022-10-31T07:30:35;9.03;;;6.33;;
2480;SDS011;57396;48.742;9.128;2022-10-31T07:33:01;10.13;;;5.70;;
2480;SDS011;57396;48.742;9.128;2022-10-31T07:35:27;8.57;;;5.03;;
2480;SDS011;57396;48.742;9.128;2022-10-31T07:37:53;14.00;;;5.50;;
2480;SDS011;57396;48.742;9.128;2022-10-31T07:40:20;16.13;;;5.37;;
2480;SDS011;57396;48.742;9.128;2022-10-31T07:42:46;12.03;;;5.50;;
2480;SDS011;57396;48.742;9.128;2022-10-31T07:45:14;19.13;;;5.70;;
2480;SDS011;57396;48.742;9.128;2022-10-31T07:47:42;11.80;;;5.20;;
2480;SDS011;57396;48.742;9.128;2022-10-31T07:50:09;10.00;;;5.70;;
2480;SDS011;57396;48.742;9.128;2022-10-31T07:52:35;9.33;;;5.13;;
2480;SDS011;57396;48.742;9.128;2022-10-31T07:55:01;11.63;;;4.90;;
2480;SDS011;57396;48.742;9.128;2022-10-31T07:57:27;15.40;;;5.70;;
2480;SDS011;57396;48.742;9.128;2022-10-31T07:59:52;9.77;;;5.50;;
2480;SDS011;57396;48.742;9.128;2022-10-31T08:02:18;7.30;;;5.47;;
2480;SDS011;57396;48.742;9.128;2022-10-31T08:04:43;11.13;;;5.77;;
2480;SDS011;57396;48.742;9.128;2022-10-31T08:07:09;12.20;;;5.87;;
2480;SDS011;57396;48.742;9.128;2022-10-31T08:09:34;12.73;;;5.20;;
2480;SDS011;57396;48.742;9.128;2022-10-31T08:12:00;10.57;;;6.13;;
2480;SDS011;57396;48.742;9.128;2022-10-31T08:14:26;22.17;;;6.27;;
2480;SDS011;57396;48.742;9.128;2022-10-31T08:16:52;11.43;;;5.53;;
2480;SDS011;57396;48.742;9.128;2022-10-31T08:19:18;14.60;;;6.00;;
2480;SDS011;57396;48.742;9.128;2022-10-31T08:21:43;11.03;;;5.83;;
2480;SDS011;57396;48.742;9.128;2022-10-31T08:24:09;14.57;;;6.07;;
2480;SDS011;57396;48.742;9.128;2022-10-31T08:26:34;13.33;;;5.67;;
2480;SDS011;57396;48.742;9.128;2022-10-31T08:28:59;9.37;;;6.40;;
2480;SDS011;57396;48.742;9.128;2022-10-31T08:31:26;12.47;;;6.80;;
2480;SDS011;57396;48.742;9.128;2022-10-31T08:33:52;11.83;;;6.43;;
2480;SDS011;57396;48.742;9.128;2022-10-31T08:36:18;9.73;;;6.57;;
2480;SDS011;57396;48.742;9.128;2022-10-31T08:38:44;11.83;;;8.07;;
2480;SDS011;57396;48.742;9.128;2022-10-31T08:41:09;16.10;;;7.80;;
2480;SDS011;57396;48.742;9.128;2022-10-31T08:43:34;29.73;;;8.60;;
2480;SDS011;57396;48.742;9.128;2022-10-31T08:46:00;15.17;;;7.83;;
2480;SDS011;57396;48.742;9.128;2022-10-31T08:48:25;16.23;;;7.80;;
2480;SDS011;57396;48.742;9.128;2022-10-31T08:50:51;15.17;;;7.30;;
2480;SDS011;57396;48.742;9.128;2022-10-31T08:53:17;14.77;;;7.10;;
2480;SDS011;57396;48.742;9.128;2022-10-31T08:55:44;12.60;;;6.70;;
2480;SDS011;57396;48.742;9.128;2022-10-31T08:58:11;12.27;;;6.90;;
2480;SDS011;57396;48.742;9.128;2022-10-31T09:00:39;19.93;;;7.53;;
2480;SDS011;57396;48.742;9.128;2022-10-31T09:03:06;15.47;;;6.90;;
2480;SDS011;57396;48.742;9.128;2022-10-31T09:05:34;19.47;;;7.37;;
2480;SDS011;57396;48.742;9.128;2022-10-31T09:08:00;12.20;;;5.90;;
2480;SDS011;57396;48.742;9.128;2022-10-31T09:10:26;12.10;;;6.20;;
2480;SDS011;57396;48.742;9.128;2022-10-31T09:13:00;14.50;;;6.03;;
2480;SDS011;57396;48.742;9.128;2022-10-31T09:15:27;11.77;;;6.30;;
2480;SDS011;57396;48.742;9.128;2022-10-31T09:17:53;13.23;;;6.03;;
2480;SDS011;57396;48.742;9.128;2022-10-31T09:20:19;13.00;;;6.30;;
2480;SDS011;57396;48.742;9.128;2022-10-31T09:22:45;14.97;;;6.50;;
2480;SDS011;57396;48.742;9.128;2022-10-31T09:25:10;20.27;;;6.43;;
2480;SDS011;57396;48.742;9.128;2022-10-31T09:27:36;10.00;;;5.57;;
2480;SDS011;57396;48.742;9.128;2022-10-31T09:30:01;13.77;;;6.60;;
2480;SDS011;57396;48.742;9.128;2022-10-31T09:32:27;9.40;;;5.60;;
2480;SDS011;57396;48.742;9.128;2022-10-31T09:34:53;9.83;;;5.50;;
2480;SDS011;57396;48.742;9.128;2022-10-31T09:37:18;9.50;;;6.20;;
2480;SDS011;57396;48.742;9.128;2022-10-31T09:39:44;22.93;;;16.27;;
2480;SDS011;57396;48.742;9.128;2022-10-31T09:52:44;16.30;;;12.00;;
2480;SDS011;57396;48.742;9.128;2022-10-31T09:55:40;16.00;;;9.53;;
2480;SDS011;57396;48.742;9.128;2022-10-31T09:58:28;31.30;;;21.70;;
2480;SDS011;57396;48.742;9.128;2022-10-31T10:00:54;39.20;;;25.93;;
2480;SDS011;57396;48.742;9.128;2022-10-31T10:05:56;13.73;;;5.27;;
2480;SDS011;57396;48.742;9.128;2022-10-31T10:08:25;18.30;;;6.93;;
2480;SDS011;57396;48.742;9.128;2022-10-31T10:16:16;13.53;;;6.00;;
2480;SDS011;57396;48.742;9.128;2022-10-31T10:33:21;14.03;;;9.20;;
2480;SDS011;57396;48.742;9.128;2022-10-31T10:35:52;16.70;;;10.60;;
2480;SDS011;57396;48.742;9.128;2022-10-31T10:38:23;18.60;;;8.30;;
2480;SDS011;57396;48.742;9.128;2022-10-31T10:40:52;61.67;;;47.70;;
2480;SDS011;57396;48.742;9.128;2022-10-31T10:43:28;129.67;;;96.60;;
2480;SDS011;57396;48.742;9.128;2022-10-31T10:46:00;92.13;;;63.90;;
2480;SDS011;57396;48.742;9.128;2022-10-31T10:51:46;74.37;;;46.17;;
2480;SDS011;57396;48.742;9.128;2022-10-31T10:59:53;34.93;;;24.40;;
2480;SDS011;57396;48.742;9.128;2022-10-31T11:02:22;19.23;;;9.07;;
2480;SDS011;57396;48.742;9.128;2022-10-31T11:05:12;11.20;;;6.70;;
2480;SDS011;57396;48.742;9.128;2022-10-31T11:07:55;13.73;;;7.30;;
2480;SDS011;57396;48.742;9.128;2022-10-31T11:10:21;15.07;;;6.93;;
2480;SDS011;57396;48.742;9.128;2022-10-31T11:15:32;17.53;;;7.13;;
2480;SDS011;57396;48.742;9.128;2022-10-31T11:18:00;11.10;;;6.50;;
2480;SDS011;57396;48.742;9.128;2022-10-31T11:20:30;15.00;;;6.60;;
2480;SDS011;57396;48.742;9.128;2022-10-31T11:23:02;18.67;;;6.70;;
2480;SDS011;57396;48.742;9.128;2022-10-31T11:25:39;14.97;;;7.60;;
2480;SDS011;57396;48.742;9.128;2022-10-31T11:28:13;23.57;;;7.43;;
2480;SDS011;57396;48.742;9.128;2022-10-31T11:30:43;14.63;;;6.40;;
2480;SDS011;57396;48.742;9.128;2022-10-31T11:33:13;13.53;;;6.50;;
2480;SDS011;57396;48.742;9.128;2022-10-31T11:35:42;12.03;;;6.40;;
2480;SDS011;57396;48.742;9.128;2022-10-31T11:38:12;16.47;;;7.90;;
2480;SDS011;57396;48.742;9.128;2022-10-31T11:40:40;24.23;;;8.30;;
2480;SDS011;57396;48.742;9.128;2022-10-31T11:43:17;16.20;;;9.17;;
2480;SDS011;57396;48.742;9.128;2022-10-31T11:45:42;14.03;;;6.57;;
2480;SDS011;57396;48.742;9.128;2022-10-31T11:48:18;18.43;;;9.23;;
2480;SDS011;57396;48.742;9.128;2022-10-31T11:50:50;15.70;;;9.80;;
2480;SDS011;57396;48.742;9.128;2022-10-31T11:53:18;13.13;;;7.97;;
2480;SDS011;57396;48.742;9.128;2022-10-31T11:56:28;20.80;;;7.60;;
2480;SDS011;57396;48.742;9.128;2022-10-31T11:59:01;26.37;;;9.10;;
2480;SDS011;57396;48.742;9.128;2022-10-31T12:01:29;12.47;;;7.60;;
2480;SDS011;57396;48.742;9.128;2022-10-31T12:04:10;20.30;;;8.83;;
2480;SDS011;57396;48.742;9.128;2022-10-31T12:06:41;15.30;;;8.30;;
2480;SDS011;57396;48.742;9.128;2022-10-31T12:09:49;32.83;;;18.10;;
2480;SDS011;57396;48.742;9.128;2022-10-31T12:15:01;17.27;;;6.77;;
2480;SDS011;57396;48.742;9.128;2022-10-31T12:31:39;13.43;;;5.60;;
2480;SDS011;57396;48.742;9.128;2022-10-31T12:37:23;11.73;;;5.73;;
2480;SDS011;57396;48.742;9.128;2022-10-31T12:42:45;8.83;;;6.37;;
2480;SDS011;57396;48.742;9.128;2022-10-31T12:47:56;20.27;;;12.10;;
2480;SDS011;57396;48.742;9.128;2022-10-31T12:50:30;9.53;;;5.30;;
2480;SDS011;57396;48.742;9.128;2022-10-31T12:55:55;13.37;;;7.87;;
2480;SDS011;57396;48.742;9.128;2022-10-31T12:58:25;19.57;;;7.20;;
2480;SDS011;57396;48.742;9.128;2022-10-31T13:01:34;17.40;;;7.20;;
2480;SDS011;57396;48.742;9.128;2022-10-31T13:06:22;15.00;;;8.80;;
2480;SDS011;57396;48.742;9.128;2022-10-31T13:08:51;23.60;;;12.70;;
2480;SDS011;57396;48.742;9.128;2022-10-31T13:11:21;10.80;;;5.37;;
2480;SDS011;57396;48.742;9.128;2022-10-31T13:16:21;12.83;;;6.30;;
2480;SDS011;57396;48.742;9.128;2022-10-31T13:27:20;18.03;;;11.70;;
2480;SDS011;57396;48.742;9.128;2022-10-31T13:29:56;18.90;;;14.70;;
2480;SDS011;57396;48.742;9.128;2022-10-31T13:32:23;22.10;;;11.90;;
2480;SDS011;57396;48.742;9.128;2022-10-31T13:34:51;36.33;;;23.77;;
2480;SDS011;57396;48.742;9.128;2022-10-31T13:43:09;16.67;;;7.60;;
2480;SDS011;57396;48.742;9.128;2022-10-31T13:45:53;14.20;;;6.20;;
2480;SDS011;57396;48.742;9.128;2022-10-31T13:51:08;14.33;;;5.40;;
2480;SDS011;57396;48.742;9.128;2022-10-31T13:53:40;16.57;;;7.80;;
2480;SDS011;57396;48.742;9.128;2022-10-31T13:58:33;15.17;;;5.70;;
2480;SDS011;57396;48.742;9.128;2022-10-31T14:03:47;13.03;;;5.17;;
2480;SDS011;57396;48.742;9.128;2022-10-31T14:06:22;21.37;;;10.13;;
2480;SDS011;57396;48.742;9.128;2022-10-31T14:08:49;22.63;;;14.80;;
2480;SDS011;57396;48.742;9.128;2022-10-31T14:11:22;14.90;;;6.30;;
2480;SDS011;57396;48.742;9.128;2022-10-31T14:13:49;12.53;;;6.07;;
2480;SDS011;57396;48.742;9.128;2022-10-31T14:16:35;14.33;;;6.07;;
2480;SDS011;57396;48.742;9.128;2022-10-31T14:19:18;14.43;;;5.40;;
2480;SDS011;57396;48.742;9.128;2022-10-31T14:21:47;18.80;;;8.80;;
2480;SDS011;57396;48.742;9.128;2022-10-31T14:26:54;20.03;;;10.77;;
2480;SDS011;57396;48.742;9.128;2022-10-31T14:29:22;23.87;;;10.67;;
2480;SDS011;57396;48.742;9.128;2022-10-31T14:34:36;26.27;;;8.33;;
2480;SDS011;57396;48.742;9.128;2022-10-31T14:40:18;9.77;;;6.60;;
2480;SDS011;57396;48.742;9.128;2022-10-31T14:45:47;20.27;;;8.57;;
2480;SDS011;57396;48.742;9.128;2022-10-31T14:51:08;17.80;;;8.03;;
2480;SDS011;57396;48.742;9.128;2022-10-31T14:53:41;15.57;;;7.40;;
2480;SDS011;57396;48.742;9.128;2022-10-31T14:56:11;13.50;;;10.33;;
2480;SDS011;57396;48.742;9.128;2022-10-31T14:58:44;19.30;;;10.87;;
2480;SDS011;57396;48.742;9.128;2022-10-31T15:01:54;21.33;;;11.13;;
2480;SDS011;57396;48.742;9.128;2022-10-31T15:04:04;15.47;;;7.90;;
2480;SDS011;57396;48.742;9.128;2022-10-31T15:06:44;17.80;;;7.73;;
2480;SDS011;57396;48.742;9.128;2022-10-31T15:09:25;21.37;;;9.20;;
2480;SDS011;57396;48.742;9.128;2022-10-31T15:11:55;10.27;;;6.80;;
2480;SDS011;57396;48.742;9.128;2022-10-31T15:14:30;14.17;;;7.57;;
2480;SDS011;57396;48.742;9.128;2022-10-31T15:17:01;18.27;;;7.50;;
2480;SDS011;57396;48.742;9.128;2022-10-31T15:19:28;24.80;;;7.10;;
2480;SDS011;57396;48.742;9.128;2022-10-31T15:21:54;15.00;;;7.53;;
2480;SDS011;57396;48.742;9.128;2022-10-31T15:24:22;18.93;;;7.70;;
2480;SDS011;57396;48.742;9.128;2022-10-31T15:26:51;36.57;;;23.07;;
2480;SDS011;57396;48.742;9.128;2022-10-31T15:29:21;31.80;;;18.57;;
2480;SDS011;57396;48.742;9.128;2022-10-31T15:31:49;26.30;;;9.77;;
2480;SDS011;57396;48.742;9.128;2022-10-31T15:34:16;17.07;;;9.13;;
2480;SDS011;57396;48.742;9.128;2022-10-31T15:36:47;17.00;;;7.70;;
2480;SDS011;57396;48.742;9.128;2022-10-31T15:39:14;30.23;;;7.77;;
2480;SDS011;57396;48.742;9.128;2022-10-31T15:41:48;14.43;;;7.30;;
2480;SDS011;57396;48.742;9.128;2022-10-31T15:44:16;17.43;;;6.90;;
2480;SDS011;57396;48.742;9.128;2022-10-31T15:46:52;15.63;;;6.53;;
2480;SDS011;57396;48.742;9.128;2022-10-31T15:51:54;19.20;;;7.00;;
2480;SDS011;57396;48.742;9.128;2022-10-31T15:54:20;15.67;;;6.97;;
2480;SDS011;57396;48.742;9.128;2022-10-31T15:56:46;31.60;;;7.23;;
2480;SDS011;57396;48.742;9.128;2022-10-31T15:59:16;12.90;;;6.43;;
2480;SDS011;57396;48.742;9.128;2022-10-31T16:01:53;13.27;;;6.60;;
2480;SDS011;57396;48.742;9.128;2022-10-31T16:04:23;14.80;;;6.73;;
2480;SDS011;57396;48.742;9.128;2022-10-31T16:09:28;17.30;;;6.60;;
2480;SDS011;57396;48.742;9.128;2022-10-31T16:11:54;15.23;;;7.60;;
2480;SDS011;57396;48.742;9.128;2022-10-31T16:14:28;16.07;;;6.90;;
2480;SDS011;57396;48.742;9.128;2022-10-31T16:16:56;12.30;;;6.90;;
2480;SDS011;57396;48.742;9.128;2022-10-31T16:19:30;12.70;;;6.50;;
2480;SDS011;57396;48.742;9.128;2022-10-31T16:22:05;15.97;;;6.30;;
2480;SDS011;57396;48.742;9.128;2022-10-31T16:24:32;14.07;;;6.20;;
2480;SDS011;57396;48.742;9.128;2022-10-31T16:27:06;14.53;;;7.17;;
2480;SDS011;57396;48.742;9.128;2022-10-31T16:29:43;11.03;;;6.23;;
2480;SDS011;57396;48.742;9.128;2022-10-31T16:32:25;14.00;;;7.20;;
2480;SDS011;57396;48.742;9.128;2022-10-31T16:34:59;26.47;;;6.50;;
2480;SDS011;57396;48.742;9.128;2022-10-31T16:37:40;25.00;;;7.40;;
2480;SDS011;57396;48.742;9.128;2022-10-31T16:40:06;10.60;;;6.93;;
2480;SDS011;57396;48.742;9.128;2022-10-31T16:42:33;15.60;;;7.87;;
2480;SDS011;57396;48.742;9.128;2022-10-31T16:44:58;15.90;;;7.80;;
2480;SDS011;57396;48.742;9.128;2022-10-31T16:47:24;20.30;;;7.30;;
2480;SDS011;57396;48.742;9.128;2022-10-31T16:49:50;14.60;;;7.13;;
2480;SDS011;57396;48.742;9.128;2022-10-31T16:52:16;13.87;;;7.27;;
2480;SDS011;57396;48.742;9.128;2022-10-31T16:54:41;18.43;;;8.20;;
2480;SDS011;57396;48.742;9.128;2022-10-31T16:57:10;17.50;;;8.87;;
2480;SDS011;57396;48.742;9.128;2022-10-31T16:59:38;35.13;;;21.70;;
2480;SDS011;57396;48.742;9.128;2022-10-31T17:02:04;20.77;;;11.00;;
2480;SDS011;57396;48.742;9.128;2022-10-31T17:04:29;16.90;;;7.90;;
2480;SDS011;57396;48.742;9.128;2022-10-31T17:06:55;14.53;;;8.10;;
2480;SDS011;57396;48.742;9.128;2022-10-31T17:09:20;14.73;;;8.60;;
2480;SDS011;57396;48.742;9.128;2022-10-31T17:11:47;29.60;;;9.50;;
2480;SDS011;57396;48.742;9.128;2022-10-31T17:14:16;17.83;;;8.60;;
2480;SDS011;57396;48.742;9.128;2022-10-31T17:16:42;14.73;;;8.80;;
2480;SDS011;57396;48.742;9.128;2022-10-31T17:19:09;43.57;;;26.97;;
2480;SDS011;57396;48.742;9.128;2022-10-31T17:21:35;24.60;;;14.87;;
2480;SDS011;57396;48.742;9.128;2022-10-31T17:24:00;20.87;;;14.30;;
2480;SDS011;57396;48.742;9.128;2022-10-31T17:26:26;35.23;;;20.63;;
2480;SDS011;57396;48.742;9.128;2022-10-31T17:28:51;35.33;;;15.90;;